sensor_id;sensor_type;location;lat;lon;timestamp;P1;durP1;ratioP1;P2;durP2;ratioP2
3795;SDS011;1913;50.660;7.834;2023-09-19T00:00:37;6.20;;;3.70;;
3795;SDS011;1913;50.660;7.834;2023-09-19T00:03:03;6.30;;;3.50;;
3795;SDS011;1913;50.660;7.834;2023-09-19T00:05:34;7.43;;;3.77;;
3795;SDS011;1913;50.660;7.834;2023-09-19T00:08:01;7.63;;;3.77;;
3795;SDS011;1913;50.660;7.834;2023-09-19T00:10:30;10.63;;;4.03;;
3795;SDS011;1913;50.660;7.834;2023-09-19T00:13:00;8.53;;;3.67;;
3795;SDS011;1913;50.660;7.834;2023-09-19T00:15:30;4.77;;;4.27;;
3795;SDS011;1913;50.660;7.834;2023-09-19T00:18:00;8.53;;;4.40;;
3795;SDS011;1913;50.660;7.834;2023-09-19T00:20:26;9.80;;;4.03;;
3795;SDS011;1913;50.660;7.834;2023-09-19T00:22:51;5.10;;;3.97;;
3795;SDS011;1913;50.660;7.834;2023-09-19T00:25:18;5.10;;;3.20;;
3795;SDS011;1913;50.660;7.834;2023-09-19T00:27:45;7.10;;;3.80;;
3795;SDS011;1913;50.660;7.834;2023-09-19T00:30:13;9.00;;;3.67;;
3795;SDS011;1913;50.660;7.834;2023-09-19T00:32:42;7.73;;;3.90;;
3795;SDS011;1913;50.660;7.834;2023-09-19T00:35:08;4.20;;;3.30;;
3795;SDS011;1913;50.660;7.834;2023-09-19T00:37:37;5.17;;;3.63;;
3795;SDS011;1913;50.660;7.834;2023-09-19T00:40:04;6.33;;;3.73;;
3795;SDS011;1913;50.660;7.834;2023-09-19T00:42:32;7.53;;;3.77;;
3795;SDS011;1913;50.660;7.834;2023-09-19T00:44:58;4.73;;;3.67;;
3795;SDS011;1913;50.660;7.834;2023-09-19T00:47:24;5.63;;;3.03;;
3795;SDS011;1913;50.660;7.834;2023-09-19T00:49:50;11.67;;;3.27;;
3795;SDS011;1913;50.660;7.834;2023-09-19T00:52:16;7.97;;;3.40;;
3795;SDS011;1913;50.660;7.834;2023-09-19T00:54:46;6.90;;;3.13;;
3795;SDS011;1913;50.660;7.834;2023-09-19T00:57:12;4.50;;;2.93;;
3795;SDS011;1913;50.660;7.834;2023-09-19T00:59:37;5.23;;;2.97;;
3795;SDS011;1913;50.660;7.834;2023-09-19T01:02:03;11.00;;;2.80;;
3795;SDS011;1913;50.660;7.834;2023-09-19T01:04:29;4.97;;;2.63;;
3795;SDS011;1913;50.660;7.834;2023-09-19T01:06:55;8.23;;;2.90;;
3795;SDS011;1913;50.660;7.834;2023-09-19T01:09:22;7.30;;;2.80;;
3795;SDS011;1913;50.660;7.834;2023-09-19T01:11:48;4.40;;;2.30;;
3795;SDS011;1913;50.660;7.834;2023-09-19T01:28:20;7.77;;;2.83;;
3795;SDS011;1913;50.660;7.834;2023-09-19T01:31:09;9.10;;;3.10;;
3795;SDS011;1913;50.660;7.834;2023-09-19T01:36:25;8.00;;;2.70;;
3795;SDS011;1913;50.660;7.834;2023-09-19T01:38:51;7.20;;;2.73;;
3795;SDS011;1913;50.660;7.834;2023-09-19T01:41:20;5.77;;;2.60;;
3795;SDS011;1913;50.660;7.834;2023-09-19T01:43:50;5.63;;;3.00;;
3795;SDS011;1913;50.660;7.834;2023-09-19T01:46:18;8.77;;;2.10;;
3795;SDS011;1913;50.660;7.834;2023-09-19T01:49:08;6.50;;;2.87;;
3795;SDS011;1913;50.660;7.834;2023-09-19T01:52:11;8.77;;;2.57;;
3795;SDS011;1913;50.660;7.834;2023-09-19T01:54:58;5.93;;;2.60;;
3795;SDS011;1913;50.660;7.834;2023-09-19T01:57:42;9.67;;;2.90;;
3795;SDS011;1913;50.660;7.834;2023-09-19T02:00:18;9.03;;;2.93;;
3795;SDS011;1913;50.660;7.834;2023-09-19T02:02:47;6.57;;;2.87;;
3795;SDS011;1913;50.660;7.834;2023-09-19T02:05:13;6.03;;;2.73;;
3795;SDS011;1913;50.660;7.834;2023-09-19T02:07:46;8.77;;;3.00;;
3795;SDS011;1913;50.660;7.834;2023-09-19T02:10:12;5.20;;;2.80;;
3795;SDS011;1913;50.660;7.834;2023-09-19T02:12:39;9.47;;;3.00;;
3795;SDS011;1913;50.660;7.834;2023-09-19T02:15:04;4.17;;;2.63;;
3795;SDS011;1913;50.660;7.834;2023-09-19T02:17:32;6.73;;;2.53;;
3795;SDS011;1913;50.660;7.834;2023-09-19T02:19:58;7.77;;;3.13;;
3795;SDS011;1913;50.660;7.834;2023-09-19T02:22:25;8.07;;;2.97;;
3795;SDS011;1913;50.660;7.834;2023-09-19T02:24:52;9.07;;;2.83;;
3795;SDS011;1913;50.660;7.834;2023-09-19T02:27:18;9.17;;;2.40;;
3795;SDS011;1913;50.660;7.834;2023-09-19T02:29:44;10.23;;;2.47;;
3795;SDS011;1913;50.660;7.834;2023-09-19T02:32:09;6.23;;;2.90;;
3795;SDS011;1913;50.660;7.834;2023-09-19T02:34:35;10.60;;;2.97;;
3795;SDS011;1913;50.660;7.834;2023-09-19T02:37:04;4.10;;;2.70;;
3795;SDS011;1913;50.660;7.834;2023-09-19T02:39:30;11.20;;;2.93;;
3795;SDS011;1913;50.660;7.834;2023-09-19T02:41:56;9.43;;;2.70;;
3795;SDS011;1913;50.660;7.834;2023-09-19T02:44:22;6.83;;;2.40;;
3795;SDS011;1913;50.660;7.834;2023-09-19T02:46:48;11.33;;;2.37;;
3795;SDS011;1913;50.660;7.834;2023-09-19T02:49:14;12.50;;;2.60;;
3795;SDS011;1913;50.660;7.834;2023-09-19T02:51:40;8.63;;;2.30;;
3795;SDS011;1913;50.660;7.834;2023-09-19T02:54:05;7.57;;;2.77;;
3795;SDS011;1913;50.660;7.834;2023-09-19T02:56:31;7.33;;;2.70;;
3795;SDS011;1913;50.660;7.834;2023-09-19T02:58:57;8.37;;;2.47;;
3795;SDS011;1913;50.660;7.834;2023-09-19T03:01:23;6.97;;;2.33;;
3795;SDS011;1913;50.660;7.834;2023-09-19T03:03:48;9.73;;;2.83;;
3795;SDS011;1913;50.660;7.834;2023-09-19T03:06:14;6.83;;;2.70;;
3795;SDS011;1913;50.660;7.834;2023-09-19T03:08:40;10.07;;;2.67;;
3795;SDS011;1913;50.660;7.834;2023-09-19T03:11:10;14.37;;;2.83;;
3795;SDS011;1913;50.660;7.834;2023-09-19T03:13:36;9.27;;;2.20;;
3795;SDS011;1913;50.660;7.834;2023-09-19T03:16:03;5.00;;;2.20;;
3795;SDS011;1913;50.660;7.834;2023-09-19T03:18:31;7.27;;;2.30;;
3795;SDS011;1913;50.660;7.834;2023-09-19T03:20:57;12.20;;;2.90;;
3795;SDS011;1913;50.660;7.834;2023-09-19T03:23:25;11.00;;;2.80;;
3795;SDS011;1913;50.660;7.834;2023-09-19T03:25:51;12.53;;;3.20;;
3795;SDS011;1913;50.660;7.834;2023-09-19T03:28:17;15.90;;;3.80;;
3795;SDS011;1913;50.660;7.834;2023-09-19T03:30:43;16.33;;;3.40;;
3795;SDS011;1913;50.660;7.834;2023-09-19T03:33:09;12.10;;;3.10;;
3795;SDS011;1913;50.660;7.834;2023-09-19T03:35:37;13.10;;;2.37;;
3795;SDS011;1913;50.660;7.834;2023-09-19T03:38:04;7.60;;;3.07;;
3795;SDS011;1913;50.660;7.834;2023-09-19T03:40:30;15.50;;;3.27;;
3795;SDS011;1913;50.660;7.834;2023-09-19T03:42:56;11.13;;;2.83;;
3795;SDS011;1913;50.660;7.834;2023-09-19T03:45:21;12.07;;;3.13;;
3795;SDS011;1913;50.660;7.834;2023-09-19T03:47:46;18.00;;;3.60;;
3795;SDS011;1913;50.660;7.834;2023-09-19T03:50:13;19.73;;;3.40;;
3795;SDS011;1913;50.660;7.834;2023-09-19T03:52:42;9.57;;;2.90;;
3795;SDS011;1913;50.660;7.834;2023-09-19T03:55:10;11.20;;;2.63;;
3795;SDS011;1913;50.660;7.834;2023-09-19T03:57:36;13.40;;;3.20;;
3795;SDS011;1913;50.660;7.834;2023-09-19T04:00:02;13.70;;;2.50;;
3795;SDS011;1913;50.660;7.834;2023-09-19T04:02:36;10.80;;;2.97;;
3795;SDS011;1913;50.660;7.834;2023-09-19T04:05:03;10.43;;;3.03;;
3795;SDS011;1913;50.660;7.834;2023-09-19T04:07:28;14.13;;;3.23;;
3795;SDS011;1913;50.660;7.834;2023-09-19T04:09:55;12.13;;;3.13;;
3795;SDS011;1913;50.660;7.834;2023-09-19T04:12:20;20.13;;;3.23;;
3795;SDS011;1913;50.660;7.834;2023-09-19T04:14:46;14.10;;;2.90;;
3795;SDS011;1913;50.660;7.834;2023-09-19T04:17:11;18.50;;;3.57;;
3795;SDS011;1913;50.660;7.834;2023-09-19T04:19:37;14.73;;;3.30;;
3795;SDS011;1913;50.660;7.834;2023-09-19T04:22:02;19.53;;;3.30;;
3795;SDS011;1913;50.660;7.834;2023-09-19T04:24:29;13.10;;;3.00;;
3795;SDS011;1913;50.660;7.834;2023-09-19T04:26:54;8.63;;;3.40;;
3795;SDS011;1913;50.660;7.834;2023-09-19T04:29:19;10.87;;;2.93;;
3795;SDS011;1913;50.660;7.834;2023-09-19T04:31:45;18.50;;;2.80;;
3795;SDS011;1913;50.660;7.834;2023-09-19T04:34:11;9.20;;;2.87;;
3795;SDS011;1913;50.660;7.834;2023-09-19T04:36:42;13.33;;;3.30;;
3795;SDS011;1913;50.660;7.834;2023-09-19T04:39:08;18.50;;;3.60;;
3795;SDS011;1913;50.660;7.834;2023-09-19T04:41:35;9.30;;;2.90;;
3795;SDS011;1913;50.660;7.834;2023-09-19T04:44:06;12.80;;;2.83;;
3795;SDS011;1913;50.660;7.834;2023-09-19T04:46:32;11.80;;;3.30;;
3795;SDS011;1913;50.660;7.834;2023-09-19T04:48:58;10.50;;;2.53;;
3795;SDS011;1913;50.660;7.834;2023-09-19T04:51:24;10.77;;;3.43;;
3795;SDS011;1913;50.660;7.834;2023-09-19T04:53:50;12.27;;;3.60;;
3795;SDS011;1913;50.660;7.834;2023-09-19T04:56:16;10.07;;;2.90;;
3795;SDS011;1913;50.660;7.834;2023-09-19T04:58:41;12.37;;;2.53;;
3795;SDS011;1913;50.660;7.834;2023-09-19T05:01:07;9.67;;;3.00;;
3795;SDS011;1913;50.660;7.834;2023-09-19T05:03:36;9.50;;;2.87;;
3795;SDS011;1913;50.660;7.834;2023-09-19T05:06:02;17.10;;;3.40;;
3795;SDS011;1913;50.660;7.834;2023-09-19T05:08:27;8.03;;;3.00;;
3795;SDS011;1913;50.660;7.834;2023-09-19T05:10:53;16.90;;;3.40;;
3795;SDS011;1913;50.660;7.834;2023-09-19T05:13:21;13.53;;;3.20;;
3795;SDS011;1913;50.660;7.834;2023-09-19T05:15:48;10.87;;;3.20;;
3795;SDS011;1913;50.660;7.834;2023-09-19T05:18:15;10.67;;;3.07;;
3795;SDS011;1913;50.660;7.834;2023-09-19T05:20:41;11.50;;;3.33;;
3795;SDS011;1913;50.660;7.834;2023-09-19T05:23:07;6.40;;;2.50;;
3795;SDS011;1913;50.660;7.834;2023-09-19T05:25:34;10.53;;;3.13;;
3795;SDS011;1913;50.660;7.834;2023-09-19T05:28:07;12.97;;;3.60;;
3795;SDS011;1913;50.660;7.834;2023-09-19T05:30:34;12.53;;;3.07;;
3795;SDS011;1913;50.660;7.834;2023-09-19T05:33:09;15.13;;;3.47;;
3795;SDS011;1913;50.660;7.834;2023-09-19T05:35:34;14.50;;;3.17;;
3795;SDS011;1913;50.660;7.834;2023-09-19T05:38:06;10.03;;;2.77;;
3795;SDS011;1913;50.660;7.834;2023-09-19T05:40:34;14.80;;;3.10;;
3795;SDS011;1913;50.660;7.834;2023-09-19T05:43:00;9.57;;;2.93;;
3795;SDS011;1913;50.660;7.834;2023-09-19T05:45:25;11.03;;;3.40;;
3795;SDS011;1913;50.660;7.834;2023-09-19T05:47:52;7.40;;;2.73;;
3795;SDS011;1913;50.660;7.834;2023-09-19T05:50:22;10.70;;;2.80;;
3795;SDS011;1913;50.660;7.834;2023-09-19T05:52:52;13.97;;;3.30;;
3795;SDS011;1913;50.660;7.834;2023-09-19T05:55:19;14.93;;;3.63;;
3795;SDS011;1913;50.660;7.834;2023-09-19T05:57:49;9.27;;;3.20;;
3795;SDS011;1913;50.660;7.834;2023-09-19T06:00:17;15.17;;;2.97;;
3795;SDS011;1913;50.660;7.834;2023-09-19T06:02:44;7.60;;;2.90;;
3795;SDS011;1913;50.660;7.834;2023-09-19T06:05:10;10.77;;;3.20;;
3795;SDS011;1913;50.660;7.834;2023-09-19T06:07:36;9.57;;;3.27;;
3795;SDS011;1913;50.660;7.834;2023-09-19T06:10:03;9.40;;;3.10;;
3795;SDS011;1913;50.660;7.834;2023-09-19T06:12:31;11.83;;;2.83;;
3795;SDS011;1913;50.660;7.834;2023-09-19T06:14:58;12.10;;;3.47;;
3795;SDS011;1913;50.660;7.834;2023-09-19T06:17:24;9.67;;;2.73;;
3795;SDS011;1913;50.660;7.834;2023-09-19T06:19:52;7.07;;;3.10;;
3795;SDS011;1913;50.660;7.834;2023-09-19T06:22:17;7.40;;;2.90;;
3795;SDS011;1913;50.660;7.834;2023-09-19T06:24:45;11.23;;;2.77;;
3795;SDS011;1913;50.660;7.834;2023-09-19T06:27:12;10.90;;;2.90;;
3795;SDS011;1913;50.660;7.834;2023-09-19T06:29:38;14.53;;;3.00;;
3795;SDS011;1913;50.660;7.834;2023-09-19T06:32:07;17.60;;;3.00;;
3795;SDS011;1913;50.660;7.834;2023-09-19T06:34:34;12.17;;;3.00;;
3795;SDS011;1913;50.660;7.834;2023-09-19T06:36:59;12.50;;;2.83;;
3795;SDS011;1913;50.660;7.834;2023-09-19T06:39:25;14.83;;;3.80;;
3795;SDS011;1913;50.660;7.834;2023-09-19T06:41:51;11.27;;;3.67;;
3795;SDS011;1913;50.660;7.834;2023-09-19T06:44:18;9.20;;;3.90;;
3795;SDS011;1913;50.660;7.834;2023-09-19T06:46:46;13.80;;;3.90;;
3795;SDS011;1913;50.660;7.834;2023-09-19T06:49:16;10.67;;;3.77;;
3795;SDS011;1913;50.660;7.834;2023-09-19T06:51:42;9.10;;;3.30;;
3795;SDS011;1913;50.660;7.834;2023-09-19T06:54:08;9.20;;;3.00;;
3795;SDS011;1913;50.660;7.834;2023-09-19T06:56:34;14.47;;;3.10;;
3795;SDS011;1913;50.660;7.834;2023-09-19T06:58:59;7.93;;;2.80;;
3795;SDS011;1913;50.660;7.834;2023-09-19T07:01:25;10.83;;;2.90;;
3795;SDS011;1913;50.660;7.834;2023-09-19T07:03:51;10.23;;;3.23;;
3795;SDS011;1913;50.660;7.834;2023-09-19T07:06:17;10.40;;;2.97;;
3795;SDS011;1913;50.660;7.834;2023-09-19T07:08:43;16.87;;;3.90;;
3795;SDS011;1913;50.660;7.834;2023-09-19T07:11:10;14.60;;;2.90;;
3795;SDS011;1913;50.660;7.834;2023-09-19T07:13:37;14.53;;;3.00;;
3795;SDS011;1913;50.660;7.834;2023-09-19T07:16:03;11.80;;;2.73;;
3795;SDS011;1913;50.660;7.834;2023-09-19T07:18:29;11.00;;;2.93;;
3795;SDS011;1913;50.660;7.834;2023-09-19T07:20:57;10.17;;;3.40;;
3795;SDS011;1913;50.660;7.834;2023-09-19T07:23:30;9.17;;;3.60;;
3795;SDS011;1913;50.660;7.834;2023-09-19T07:26:00;11.43;;;2.90;;
3795;SDS011;1913;50.660;7.834;2023-09-19T07:28:26;9.63;;;2.40;;
3795;SDS011;1913;50.660;7.834;2023-09-19T07:30:52;11.33;;;2.90;;
3795;SDS011;1913;50.660;7.834;2023-09-19T07:33:17;10.70;;;2.70;;
3795;SDS011;1913;50.660;7.834;2023-09-19T07:35:45;10.77;;;2.60;;
3795;SDS011;1913;50.660;7.834;2023-09-19T07:38:12;11.27;;;2.90;;
3795;SDS011;1913;50.660;7.834;2023-09-19T07:40:37;13.07;;;3.40;;
3795;SDS011;1913;50.660;7.834;2023-09-19T07:43:02;12.97;;;3.17;;
3795;SDS011;1913;50.660;7.834;2023-09-19T07:45:29;11.50;;;2.70;;
3795;SDS011;1913;50.660;7.834;2023-09-19T07:47:59;16.23;;;2.70;;
3795;SDS011;1913;50.660;7.834;2023-09-19T07:50:29;14.67;;;2.93;;
3795;SDS011;1913;50.660;7.834;2023-09-19T07:52:54;15.77;;;3.20;;
3795;SDS011;1913;50.660;7.834;2023-09-19T07:55:21;8.87;;;2.80;;
3795;SDS011;1913;50.660;7.834;2023-09-19T07:57:51;14.17;;;3.37;;
3795;SDS011;1913;50.660;7.834;2023-09-19T08:00:18;11.23;;;3.50;;
3795;SDS011;1913;50.660;7.834;2023-09-19T08:02:43;13.10;;;3.07;;
3795;SDS011;1913;50.660;7.834;2023-09-19T08:05:09;13.40;;;2.63;;
3795;SDS011;1913;50.660;7.834;2023-09-19T08:07:36;18.10;;;3.77;;
3795;SDS011;1913;50.660;7.834;2023-09-19T08:10:03;11.83;;;3.03;;
3795;SDS011;1913;50.660;7.834;2023-09-19T08:12:33;9.80;;;2.50;;
3795;SDS011;1913;50.660;7.834;2023-09-19T08:15:00;11.97;;;2.90;;
3795;SDS011;1913;50.660;7.834;2023-09-19T08:17:27;14.93;;;3.20;;
3795;SDS011;1913;50.660;7.834;2023-09-19T08:19:53;10.37;;;2.93;;
3795;SDS011;1913;50.660;7.834;2023-09-19T08:22:21;12.30;;;2.70;;
3795;SDS011;1913;50.660;7.834;2023-09-19T08:24:48;15.50;;;3.80;;
3795;SDS011;1913;50.660;7.834;2023-09-19T08:27:14;9.70;;;3.10;;
3795;SDS011;1913;50.660;7.834;2023-09-19T08:29:40;11.83;;;3.70;;
3795;SDS011;1913;50.660;7.834;2023-09-19T08:32:05;9.80;;;3.27;;
3795;SDS011;1913;50.660;7.834;2023-09-19T08:34:31;8.80;;;2.87;;
3795;SDS011;1913;50.660;7.834;2023-09-19T08:36:59;8.47;;;2.90;;
3795;SDS011;1913;50.660;7.834;2023-09-19T08:39:24;8.70;;;2.70;;
3795;SDS011;1913;50.660;7.834;2023-09-19T08:41:57;12.23;;;3.50;;
3795;SDS011;1913;50.660;7.834;2023-09-19T08:44:24;11.33;;;2.87;;
3795;SDS011;1913;50.660;7.834;2023-09-19T08:46:49;11.00;;;3.20;;
3795;SDS011;1913;50.660;7.834;2023-09-19T08:49:24;9.60;;;3.37;;
3795;SDS011;1913;50.660;7.834;2023-09-19T08:52:28;11.30;;;3.13;;
3795;SDS011;1913;50.660;7.834;2023-09-19T08:54:59;12.80;;;3.10;;
3795;SDS011;1913;50.660;7.834;2023-09-19T08:57:29;9.83;;;3.17;;
3795;SDS011;1913;50.660;7.834;2023-09-19T09:00:00;11.33;;;3.20;;
3795;SDS011;1913;50.660;7.834;2023-09-19T09:02:27;10.27;;;3.40;;
3795;SDS011;1913;50.660;7.834;2023-09-19T09:04:52;12.37;;;2.97;;
3795;SDS011;1913;50.660;7.834;2023-09-19T09:07:19;13.20;;;3.03;;
3795;SDS011;1913;50.660;7.834;2023-09-19T09:09:46;11.20;;;2.63;;
3795;SDS011;1913;50.660;7.834;2023-09-19T09:12:13;8.93;;;3.13;;
3795;SDS011;1913;50.660;7.834;2023-09-19T09:14:40;20.07;;;3.30;;
3795;SDS011;1913;50.660;7.834;2023-09-19T09:17:10;12.03;;;3.37;;
3795;SDS011;1913;50.660;7.834;2023-09-19T09:19:37;9.00;;;2.50;;
3795;SDS011;1913;50.660;7.834;2023-09-19T09:22:06;10.13;;;2.90;;
3795;SDS011;1913;50.660;7.834;2023-09-19T09:24:35;13.47;;;3.27;;
3795;SDS011;1913;50.660;7.834;2023-09-19T09:27:06;8.90;;;3.00;;
3795;SDS011;1913;50.660;7.834;2023-09-19T09:29:43;9.73;;;3.00;;
3795;SDS011;1913;50.660;7.834;2023-09-19T09:32:27;18.53;;;3.53;;
3795;SDS011;1913;50.660;7.834;2023-09-19T09:35:02;10.40;;;2.90;;
3795;SDS011;1913;50.660;7.834;2023-09-19T09:37:34;11.90;;;2.70;;
3795;SDS011;1913;50.660;7.834;2023-09-19T09:40:03;11.90;;;3.60;;
3795;SDS011;1913;50.660;7.834;2023-09-19T09:42:56;14.63;;;3.37;;
3795;SDS011;1913;50.660;7.834;2023-09-19T09:45:24;10.20;;;2.90;;
3795;SDS011;1913;50.660;7.834;2023-09-19T09:47:59;9.50;;;3.17;;
3795;SDS011;1913;50.660;7.834;2023-09-19T09:55:56;14.13;;;4.27;;
3795;SDS011;1913;50.660;7.834;2023-09-19T09:58:27;6.80;;;2.70;;
3795;SDS011;1913;50.660;7.834;2023-09-19T10:01:00;8.43;;;2.97;;
3795;SDS011;1913;50.660;7.834;2023-09-19T10:03:37;8.47;;;2.77;;
3795;SDS011;1913;50.660;7.834;2023-09-19T10:06:05;11.80;;;2.70;;
3795;SDS011;1913;50.660;7.834;2023-09-19T10:08:36;11.30;;;3.00;;
3795;SDS011;1913;50.660;7.834;2023-09-19T10:11:09;13.20;;;3.30;;
3795;SDS011;1913;50.660;7.834;2023-09-19T10:13:41;9.73;;;3.20;;
3795;SDS011;1913;50.660;7.834;2023-09-19T10:16:07;8.53;;;3.00;;
3795;SDS011;1913;50.660;7.834;2023-09-19T10:18:36;13.13;;;2.83;;
3795;SDS011;1913;50.660;7.834;2023-09-19T10:21:04;12.50;;;3.10;;
3795;SDS011;1913;50.660;7.834;2023-09-19T10:23:31;13.83;;;2.67;;
3795;SDS011;1913;50.660;7.834;2023-09-19T10:25:59;16.40;;;3.03;;
3795;SDS011;1913;50.660;7.834;2023-09-19T10:28:27;9.90;;;3.23;;
3795;SDS011;1913;50.660;7.834;2023-09-19T10:30:54;6.80;;;2.80;;
3795;SDS011;1913;50.660;7.834;2023-09-19T10:33:24;11.50;;;2.57;;
3795;SDS011;1913;50.660;7.834;2023-09-19T10:35:54;9.80;;;2.80;;
3795;SDS011;1913;50.660;7.834;2023-09-19T10:38:25;17.23;;;3.50;;
3795;SDS011;1913;50.660;7.834;2023-09-19T10:40:55;11.80;;;3.60;;
3795;SDS011;1913;50.660;7.834;2023-09-19T10:43:31;11.23;;;3.00;;
3795;SDS011;1913;50.660;7.834;2023-09-19T10:46:02;6.97;;;3.00;;
3795;SDS011;1913;50.660;7.834;2023-09-19T10:48:32;7.63;;;3.07;;
3795;SDS011;1913;50.660;7.834;2023-09-19T10:51:00;12.93;;;2.93;;
3795;SDS011;1913;50.660;7.834;2023-09-19T10:53:29;10.70;;;2.97;;
3795;SDS011;1913;50.660;7.834;2023-09-19T10:56:07;3.13;;;2.13;;
3795;SDS011;1913;50.660;7.834;2023-09-19T10:58:39;11.50;;;3.20;;
3795;SDS011;1913;50.660;7.834;2023-09-19T11:01:09;7.60;;;2.70;;
3795;SDS011;1913;50.660;7.834;2023-09-19T11:03:40;9.77;;;2.90;;
3795;SDS011;1913;50.660;7.834;2023-09-19T11:06:12;12.83;;;2.90;;
3795;SDS011;1913;50.660;7.834;2023-09-19T11:09:02;11.20;;;2.90;;
3795;SDS011;1913;50.660;7.834;2023-09-19T11:14:28;11.80;;;3.20;;
3795;SDS011;1913;50.660;7.834;2023-09-19T11:25:41;7.90;;;3.17;;
3795;SDS011;1913;50.660;7.834;2023-09-19T11:30:44;7.93;;;3.03;;
3795;SDS011;1913;50.660;7.834;2023-09-19T11:33:20;7.53;;;2.80;;
3795;SDS011;1913;50.660;7.834;2023-09-19T11:36:08;8.93;;;2.87;;
3795;SDS011;1913;50.660;7.834;2023-09-19T11:43:54;17.27;;;3.10;;
3795;SDS011;1913;50.660;7.834;2023-09-19T11:49:16;13.97;;;3.53;;
3795;SDS011;1913;50.660;7.834;2023-09-19T11:51:48;11.50;;;2.60;;
3795;SDS011;1913;50.660;7.834;2023-09-19T11:54:16;9.03;;;2.87;;
3795;SDS011;1913;50.660;7.834;2023-09-19T11:56:50;12.50;;;3.33;;
3795;SDS011;1913;50.660;7.834;2023-09-19T11:59:20;6.67;;;2.70;;
3795;SDS011;1913;50.660;7.834;2023-09-19T12:01:51;9.47;;;2.90;;
3795;SDS011;1913;50.660;7.834;2023-09-19T12:04:37;14.03;;;3.63;;
3795;SDS011;1913;50.660;7.834;2023-09-19T12:07:04;7.47;;;2.93;;
3795;SDS011;1913;50.660;7.834;2023-09-19T12:09:35;12.23;;;3.13;;
3795;SDS011;1913;50.660;7.834;2023-09-19T12:12:04;9.23;;;2.77;;
3795;SDS011;1913;50.660;7.834;2023-09-19T12:14:29;10.50;;;3.10;;
3795;SDS011;1913;50.660;7.834;2023-09-19T12:16:56;10.83;;;2.83;;
3795;SDS011;1913;50.660;7.834;2023-09-19T12:19:22;9.77;;;2.87;;
3795;SDS011;1913;50.660;7.834;2023-09-19T12:21:58;11.40;;;3.47;;
3795;SDS011;1913;50.660;7.834;2023-09-19T12:24:30;8.60;;;2.73;;
3795;SDS011;1913;50.660;7.834;2023-09-19T12:27:03;8.10;;;3.23;;
3795;SDS011;1913;50.660;7.834;2023-09-19T12:29:31;8.43;;;3.07;;
3795;SDS011;1913;50.660;7.834;2023-09-19T12:31:59;10.07;;;2.67;;
3795;SDS011;1913;50.660;7.834;2023-09-19T12:34:31;7.83;;;2.60;;
3795;SDS011;1913;50.660;7.834;2023-09-19T12:37:03;13.33;;;2.77;;
3795;SDS011;1913;50.660;7.834;2023-09-19T12:39:52;10.17;;;2.70;;
3795;SDS011;1913;50.660;7.834;2023-09-19T12:42:22;13.20;;;2.77;;
3795;SDS011;1913;50.660;7.834;2023-09-19T12:44:50;9.97;;;2.80;;
3795;SDS011;1913;50.660;7.834;2023-09-19T12:47:20;11.27;;;3.17;;
3795;SDS011;1913;50.660;7.834;2023-09-19T12:52:36;5.83;;;2.60;;
3795;SDS011;1913;50.660;7.834;2023-09-19T12:55:03;8.03;;;2.73;;
3795;SDS011;1913;50.660;7.834;2023-09-19T12:57:32;7.77;;;3.13;;
3795;SDS011;1913;50.660;7.834;2023-09-19T13:00:00;9.63;;;2.77;;
3795;SDS011;1913;50.660;7.834;2023-09-19T13:02:31;9.30;;;2.80;;
3795;SDS011;1913;50.660;7.834;2023-09-19T13:04:57;16.60;;;3.13;;
3795;SDS011;1913;50.660;7.834;2023-09-19T13:07:43;12.43;;;2.60;;
3795;SDS011;1913;50.660;7.834;2023-09-19T13:10:10;9.00;;;2.77;;
3795;SDS011;1913;50.660;7.834;2023-09-19T13:12:36;11.20;;;2.50;;
3795;SDS011;1913;50.660;7.834;2023-09-19T13:15:10;8.97;;;2.50;;
3795;SDS011;1913;50.660;7.834;2023-09-19T13:17:44;11.00;;;2.70;;
3795;SDS011;1913;50.660;7.834;2023-09-19T13:20:21;9.60;;;2.47;;
3795;SDS011;1913;50.660;7.834;2023-09-19T13:22:54;13.80;;;2.57;;
3795;SDS011;1913;50.660;7.834;2023-09-19T13:25:23;6.13;;;2.37;;
3795;SDS011;1913;50.660;7.834;2023-09-19T13:30:19;7.77;;;2.20;;
3795;SDS011;1913;50.660;7.834;2023-09-19T13:32:45;14.10;;;3.20;;
3795;SDS011;1913;50.660;7.834;2023-09-19T13:35:15;5.60;;;2.27;;
3795;SDS011;1913;50.660;7.834;2023-09-19T13:37:41;5.20;;;2.30;;
3795;SDS011;1913;50.660;7.834;2023-09-19T13:42:34;6.80;;;2.40;;
3795;SDS011;1913;50.660;7.834;2023-09-19T13:45:01;6.87;;;2.30;;
3795;SDS011;1913;50.660;7.834;2023-09-19T13:47:30;14.23;;;3.00;;
3795;SDS011;1913;50.660;7.834;2023-09-19T13:49:57;6.60;;;2.40;;
3795;SDS011;1913;50.660;7.834;2023-09-19T13:52:23;5.07;;;1.90;;
3795;SDS011;1913;50.660;7.834;2023-09-19T13:54:52;5.20;;;2.00;;
3795;SDS011;1913;50.660;7.834;2023-09-19T13:57:22;6.33;;;2.00;;
3795;SDS011;1913;50.660;7.834;2023-09-19T13:59:48;18.73;;;2.40;;
3795;SDS011;1913;50.660;7.834;2023-09-19T14:02:13;5.90;;;2.53;;
3795;SDS011;1913;50.660;7.834;2023-09-19T14:04:39;9.90;;;2.70;;
3795;SDS011;1913;50.660;7.834;2023-09-19T14:07:05;6.93;;;2.30;;
3795;SDS011;1913;50.660;7.834;2023-09-19T14:09:32;6.67;;;2.07;;
3795;SDS011;1913;50.660;7.834;2023-09-19T14:11:58;6.77;;;2.10;;
3795;SDS011;1913;50.660;7.834;2023-09-19T14:14:24;5.27;;;2.10;;
3795;SDS011;1913;50.660;7.834;2023-09-19T14:16:49;5.47;;;2.40;;
3795;SDS011;1913;50.660;7.834;2023-09-19T14:19:16;4.63;;;2.10;;
3795;SDS011;1913;50.660;7.834;2023-09-19T14:21:41;10.03;;;2.40;;
3795;SDS011;1913;50.660;7.834;2023-09-19T14:24:07;7.83;;;2.10;;
3795;SDS011;1913;50.660;7.834;2023-09-19T14:26:34;6.33;;;1.97;;
3795;SDS011;1913;50.660;7.834;2023-09-19T14:29:00;5.43;;;1.97;;
3795;SDS011;1913;50.660;7.834;2023-09-19T14:31:26;4.97;;;2.27;;
3795;SDS011;1913;50.660;7.834;2023-09-19T14:33:56;7.10;;;2.27;;
3795;SDS011;1913;50.660;7.834;2023-09-19T14:36:22;5.50;;;2.20;;
3795;SDS011;1913;50.660;7.834;2023-09-19T14:38:51;6.60;;;2.17;;
3795;SDS011;1913;50.660;7.834;2023-09-19T14:41:19;4.90;;;1.87;;
3795;SDS011;1913;50.660;7.834;2023-09-19T14:43:44;5.27;;;2.20;;
3795;SDS011;1913;50.660;7.834;2023-09-19T14:46:10;7.60;;;2.10;;
3795;SDS011;1913;50.660;7.834;2023-09-19T14:48:36;4.33;;;2.00;;
3795;SDS011;1913;50.660;7.834;2023-09-19T14:51:02;5.47;;;2.10;;
3795;SDS011;1913;50.660;7.834;2023-09-19T14:53:29;8.80;;;2.20;;
3795;SDS011;1913;50.660;7.834;2023-09-19T14:55:55;4.13;;;1.90;;
3795;SDS011;1913;50.660;7.834;2023-09-19T14:58:21;12.40;;;2.40;;
3795;SDS011;1913;50.660;7.834;2023-09-19T15:00:46;6.43;;;1.87;;
3795;SDS011;1913;50.660;7.834;2023-09-19T15:03:12;9.40;;;2.63;;
3795;SDS011;1913;50.660;7.834;2023-09-19T15:05:38;7.97;;;2.30;;
3795;SDS011;1913;50.660;7.834;2023-09-19T15:08:04;5.27;;;2.07;;
3795;SDS011;1913;50.660;7.834;2023-09-19T15:10:30;7.50;;;2.07;;
3795;SDS011;1913;50.660;7.834;2023-09-19T15:12:56;5.00;;;2.10;;
3795;SDS011;1913;50.660;7.834;2023-09-19T15:15:22;10.70;;;2.07;;
3795;SDS011;1913;50.660;7.834;2023-09-19T15:17:47;7.23;;;1.87;;
3795;SDS011;1913;50.660;7.834;2023-09-19T15:20:13;8.53;;;2.20;;
3795;SDS011;1913;50.660;7.834;2023-09-19T15:22:39;5.23;;;1.60;;
3795;SDS011;1913;50.660;7.834;2023-09-19T15:25:04;4.13;;;2.00;;
3795;SDS011;1913;50.660;7.834;2023-09-19T15:27:31;7.57;;;2.33;;
3795;SDS011;1913;50.660;7.834;2023-09-19T15:29:57;6.53;;;1.97;;
3795;SDS011;1913;50.660;7.834;2023-09-19T15:32:24;8.13;;;1.80;;
3795;SDS011;1913;50.660;7.834;2023-09-19T15:34:50;6.77;;;2.13;;
3795;SDS011;1913;50.660;7.834;2023-09-19T15:37:15;5.03;;;2.03;;
3795;SDS011;1913;50.660;7.834;2023-09-19T15:39:41;4.10;;;1.93;;
3795;SDS011;1913;50.660;7.834;2023-09-19T15:42:07;4.23;;;1.80;;
3795;SDS011;1913;50.660;7.834;2023-09-19T15:44:32;4.60;;;1.80;;
3795;SDS011;1913;50.660;7.834;2023-09-19T15:46:58;5.50;;;2.20;;
3795;SDS011;1913;50.660;7.834;2023-09-19T15:49:24;13.20;;;2.53;;
3795;SDS011;1913;50.660;7.834;2023-09-19T15:51:50;4.57;;;2.20;;
3795;SDS011;1913;50.660;7.834;2023-09-19T15:54:15;5.30;;;2.40;;
3795;SDS011;1913;50.660;7.834;2023-09-19T15:56:41;5.53;;;2.37;;
3795;SDS011;1913;50.660;7.834;2023-09-19T15:59:08;3.40;;;1.93;;
3795;SDS011;1913;50.660;7.834;2023-09-19T16:01:34;5.30;;;2.30;;
3795;SDS011;1913;50.660;7.834;2023-09-19T16:04:00;7.33;;;2.47;;
3795;SDS011;1913;50.660;7.834;2023-09-19T16:06:26;6.30;;;2.10;;